Time;durP1;ratioP1;P1;durP2;ratioP2;P2;SDS_P1;SDS_P2;PMS_P1;PMS_P2;Temp;Humidity;BMP_temperature;BMP_pressure;BME280_temperature;BME280_humidity;BME280_pressure;Samples;Min_cycle;Max_cycle;Signal;HPM_P1;HPM_P2
2023/03/31 00:00:11;;;;;;;3.45;2.42;;;;;;;11.71;70.60;97704.69;7388813;19;19926;-81
2023/03/31 00:02:41;;;;;;;3.67;1.75;;;;;;;11.61;70.07;97711.06;7388806;19;19922;-80
2023/03/31 00:05:08;;;;;;;2.55;1.48;;;;;;;11.60;69.08;97700.66;7386569;19;19999;-80
2023/03/31 00:07:36;;;;;;;2.70;1.50;;;;;;;11.66;69.94;97697.28;7393344;19;20352;-80
2023/03/31 00:10:04;;;;;;;3.95;1.40;;;;;;;11.67;70.11;97693.63;7390410;19;19926;-81
2023/03/31 00:12:44;;;;;;;3.22;1.85;;;;;;;11.68;70.08;97681.19;7387970;19;20359;-80
2023/03/31 00:15:11;;;;;;;2.75;1.38;;;;;;;11.63;69.92;97679.09;7387350;19;19918;-80
2023/03/31 00:17:38;;;;;;;2.08;1.35;;;;;;;11.58;70.18;97676.16;7391013;19;19937;-80
2023/03/31 00:20:10;;;;;;;2.45;1.63;;;;;;;11.46;70.61;97675.75;7391786;19;19918;-80
2023/03/31 00:22:40;;;;;;;2.75;1.70;;;;;;;11.39;70.24;97665.03;7392319;19;20291;-79
2023/03/31 00:25:11;;;;;;;3.60;1.33;;;;;;;11.41;70.73;97668.34;7388991;19;19934;-80
2023/03/31 00:27:40;;;;;;;4.88;1.75;;;;;;;11.43;70.38;97666.34;7392650;19;20297;-81
2023/03/31 00:30:08;;;;;;;4.72;1.70;;;;;;;11.40;70.39;97660.56;7390725;19;19918;-80
2023/03/31 00:32:35;;;;;;;4.53;1.67;;;;;;;11.39;70.49;97657.09;7390329;19;19924;-80
2023/03/31 00:35:03;;;;;;;5.43;2.22;;;;;;;11.40;70.60;97661.41;7389960;19;19929;-80
2023/03/31 00:37:29;;;;;;;2.53;1.55;;;;;;;11.38;70.62;97655.47;7386659;19;20078;-80
2023/03/31 00:39:56;;;;;;;4.25;1.52;;;;;;;11.43;70.72;97645.16;7392929;19;20337;-80
2023/03/31 00:42:24;;;;;;;2.65;1.15;;;;;;;11.48;70.71;97643.78;7384851;19;19995;-80
2023/03/31 00:45:29;;;;;;;5.38;1.75;;;;;;;11.40;70.37;97637.56;7390431;19;20420;-80
2023/03/31 00:48:03;;;;;;;4.60;1.73;;;;;;;11.40;70.71;97639.38;7386080;19;20718;-80
2023/03/31 00:50:34;;;;;;;2.33;1.73;;;;;;;11.39;70.87;97632.44;7386127;19;20654;-80
2023/03/31 00:53:07;;;;;;;4.20;1.85;;;;;;;11.37;71.19;97622.06;7387137;19;19922;-80
2023/03/31 00:55:38;;;;;;;5.07;1.83;;;;;;;11.39;70.64;97616.56;7385360;19;20345;-81
2023/03/31 00:58:05;;;;;;;4.30;2.22;;;;;;;11.36;71.03;97608.97;7390094;19;19918;-80
2023/03/31 01:00:32;;;;;;;3.50;2.55;;;;;;;11.30;70.94;97618.47;7387858;19;19921;-80
2023/03/31 01:03:02;;;;;;;5.95;2.63;;;;;;;11.27;71.25;97610.03;7386389;19;19939;-80
2023/03/31 01:05:35;;;;;;;3.22;2.15;;;;;;;11.33;71.13;97612.81;7383529;19;19935;-80
2023/03/31 01:08:04;;;;;;;4.35;1.70;;;;;;;11.27;71.57;97613.53;7392881;19;20340;-79
2023/03/31 01:10:40;;;;;;;2.90;1.58;;;;;;;11.34;71.65;97617.09;7380125;19;19922;-80
2023/03/31 01:13:09;;;;;;;4.28;1.20;;;;;;;11.29;70.79;97606.22;7386712;19;19918;-80
2023/03/31 01:15:36;;;;;;;3.17;2.50;;;;;;;11.33;70.45;97604.03;7385458;19;19922;-80
2023/03/31 01:18:04;;;;;;;2.75;1.73;;;;;;;11.26;70.80;97601.28;7391063;19;20040;-80
2023/03/31 01:20:37;;;;;;;7.25;1.92;;;;;;;11.41;70.90;97601.31;7381909;19;19915;-80
2023/03/31 01:23:35;;;;;;;5.57;2.00;;;;;;;11.40;71.21;97597.84;7386960;19;20325;-80
2023/03/31 01:26:07;;;;;;;6.30;1.45;;;;;;;11.41;70.97;97596.03;7388175;19;20268;-80
2023/03/31 01:28:38;;;;;;;5.38;3.05;;;;;;;11.45;70.89;97585.88;7384974;19;20422;-80
2023/03/31 01:31:30;;;;;;;2.95;1.52;;;;;;;11.53;71.14;97569.91;7391147;19;20290;-80
2023/03/31 01:34:15;;;;;;;5.32;2.03;;;;;;;11.59;70.46;97551.47;7387312;19;19927;-79
2023/03/31 01:37:00;;;;;;;3.00;1.90;;;;;;;11.61;70.44;97543.31;7388452;19;19918;-81
2023/03/31 01:39:30;;;;;;;3.75;1.63;;;;;;;11.63;70.56;97542.13;7384863;19;19927;-79
2023/03/31 01:42:02;;;;;;;6.97;2.13;;;;;;;11.55;70.25;97541.41;7389440;19;19914;-80
2023/03/31 01:44:39;;;;;;;7.13;2.80;;;;;;;11.54;70.09;97539.78;7381884;19;19927;-80
2023/03/31 01:47:16;;;;;;;3.83;1.70;;;;;;;11.52;70.15;97544.44;7387325;19;20303;-80
2023/03/31 01:49:56;;;;;;;4.63;2.30;;;;;;;11.54;70.11;97548.53;7387083;19;20761;-80
2023/03/31 01:52:29;;;;;;;13.85;2.25;;;;;;;11.54;69.71;97555.66;7382003;19;19927;-80
2023/03/31 01:55:19;;;;;;;5.30;2.00;;;;;;;11.58;70.17;97552.44;7384067;19;19922;-80
2023/03/31 01:58:15;;;;;;;4.28;1.58;;;;;;;11.58;70.45;97547.16;7381952;19;19922;-80
2023/03/31 02:00:50;;;;;;;4.45;2.00;;;;;;;11.49;69.74;97550.09;7382524;19;19933;-80
2023/03/31 02:03:23;;;;;;;4.65;2.95;;;;;;;11.50;69.53;97559.66;7384321;19;19939;-79
2023/03/31 02:05:54;;;;;;;5.35;2.58;;;;;;;11.58;69.74;97563.06;7384064;19;19914;-79
2023/03/31 02:08:35;;;;;;;5.45;1.88;;;;;;;11.64;70.33;97561.53;7376441;19;19919;-80
2023/03/31 02:11:01;;;;;;;3.47;2.13;;;;;;;11.64;70.42;97553.56;7384389;19;19919;-80
2023/03/31 02:13:29;;;;;;;4.22;2.08;;;;;;;11.60;70.40;97558.41;7381524;19;19922;-80
2023/03/31 02:16:01;;;;;;;4.78;2.05;;;;;;;11.49;71.00;97548.25;7384473;19;19922;-79
2023/03/31 02:18:32;;;;;;;3.28;1.35;;;;;;;11.43;68.90;97555.09;7381323;19;19923;-81
2023/03/31 02:20:59;;;;;;;2.60;1.90;;;;;;;11.62;67.46;97542.34;7387811;19;20345;-80
2023/03/31 02:23:30;;;;;;;6.47;3.17;;;;;;;11.75;66.12;97544.34;7384031;19;20819;-84
2023/03/31 02:26:20;;;;;;;3.35;1.27;;;;;;;11.84;64.91;97545.88;7386314;19;19915;-79
2023/03/31 02:28:47;;;;;;;4.63;2.40;;;;;;;11.89;65.19;97534.75;7384356;19;19923;-80
2023/03/31 02:31:38;;;;;;;4.03;1.25;;;;;;;11.87;65.52;97519.03;7379080;19;19924;-80
2023/03/31 02:34:05;;;;;;;1.60;1.20;;;;;;;11.91;67.17;97519.50;7384637;19;19941;-80
2023/03/31 02:36:34;;;;;;;2.08;1.13;;;;;;;11.81;68.00;97525.88;7382213;19;20840;-83
2023/03/31 02:39:05;;;;;;;3.53;1.60;;;;;;;11.81;68.81;97522.41;7389030;19;19926;-80
2023/03/31 02:41:32;;;;;;;2.92;1.05;;;;;;;11.76;70.01;97512.34;7383643;19;19947;-79
2023/03/31 02:43:59;;;;;;;5.05;2.90;;;;;;;11.66;70.94;97503.84;7387175;19;21146;-80
2023/03/31 02:46:26;;;;;;;2.83;1.17;;;;;;;11.63;71.11;97496.28;7381774;19;19926;-80
2023/03/31 02:48:56;;;;;;;4.78;2.45;;;;;;;11.47;70.98;97489.34;7382630;19;19922;-81
2023/03/31 02:52:14;;;;;;;4.80;3.13;;;;;;;11.60;70.73;97464.84;7384023;19;20566;-79
2023/03/31 02:55:00;;;;;;;2.90;1.80;;;;;;;11.61;71.30;97454.09;7383754;19;20367;-80
2023/03/31 02:57:49;;;;;;;3.15;1.40;;;;;;;11.64;71.00;97437.81;7384337;19;19923;-80
2023/03/31 03:00:45;;;;;;;4.28;1.35;;;;;;;11.62;71.58;97434.53;7387278;19;19918;-79
2023/03/31 03:03:39;;;;;;;3.00;1.80;;;;;;;11.63;71.51;97435.34;7381148;19;19982;-80
2023/03/31 03:06:36;;;;;;;2.03;1.60;;;;;;;11.62;72.20;97426.59;7383051;19;20307;-80
2023/03/31 03:09:48;;;;;;;3.53;2.08;;;;;;;11.45;71.80;97408.44;7380835;19;19915;-79
2023/03/31 03:12:21;;;;;;;6.35;2.13;;;;;;;11.46;71.37;97395.00;7384601;19;19995;-79
2023/03/31 03:14:54;;;;;;;2.85;1.88;;;;;;;11.42;71.21;97385.78;7383123;19;19934;-79
2023/03/31 03:17:25;;;;;;;6.90;2.47;;;;;;;11.41;70.70;97366.44;7379639;19;19989;-80
2023/03/31 03:19:54;;;;;;;2.13;1.73;;;;;;;11.46;70.38;97365.06;7385506;19;19939;-81
2023/03/31 03:22:22;;;;;;;2.83;1.83;;;;;;;11.65;69.97;97362.63;7379966;19;19919;-79
2023/03/31 03:24:50;;;;;;;2.35;2.15;;;;;;;11.71;69.99;97350.44;7383286;19;19919;-79
2023/03/31 03:27:18;;;;;;;5.03;1.98;;;;;;;11.58;69.76;97345.81;7386089;19;19935;-79
2023/03/31 03:29:46;;;;;;;3.70;2.20;;;;;;;11.42;70.05;97328.34;7385461;19;19919;-78
2023/03/31 03:32:13;;;;;;;3.88;2.78;;;;;;;11.46;70.00;97320.03;7386448;19;19918;-79
2023/03/31 03:34:40;;;;;;;3.95;2.03;;;;;;;11.37;69.86;97314.84;7379967;19;19914;-79
2023/03/31 03:37:06;;;;;;;4.47;1.95;;;;;;;11.39;70.18;97320.75;7383014;19;19929;-78
2023/03/31 03:39:33;;;;;;;4.18;1.95;;;;;;;11.33;70.18;97305.63;7382885;19;19918;-77
2023/03/31 03:42:00;;;;;;;4.45;3.58;;;;;;;11.43;69.96;97302.69;7392752;19;19922;-79
2023/03/31 03:44:27;;;;;;;3.53;2.25;;;;;;;11.43;69.98;97287.63;7387440;19;19923;-80
2023/03/31 03:46:54;;;;;;;4.53;2.22;;;;;;;11.42;69.88;97296.56;7394480;19;19921;-79
2023/03/31 03:49:21;;;;;;;5.88;2.60;;;;;;;11.41;69.97;97289.63;7392499;19;19923;-80
2023/03/31 03:51:47;;;;;;;2.95;1.83;;;;;;;11.46;69.46;97281.13;7392031;19;20368;-79
2023/03/31 03:54:14;;;;;;;4.50;1.83;;;;;;;11.43;70.23;97279.69;7385633;19;19918;-79
2023/03/31 03:56:41;;;;;;;7.95;2.20;;;;;;;11.56;69.88;97271.03;7385572;19;19918;-80
2023/03/31 03:59:10;;;;;;;9.18;3.78;;;;;;;11.65;69.46;97269.09;7392600;19;20712;-80
2023/03/31 04:01:36;;;;;;;4.65;2.30;;;;;;;11.71;69.53;97265.66;7388085;19;19914;-81
2023/03/31 04:04:03;;;;;;;3.97;2.05;;;;;;;11.69;69.45;97259.75;7388584;19;19922;-79
2023/03/31 04:06:30;;;;;;;4.38;1.92;;;;;;;11.61;69.76;97243.97;7384876;19;20397;-80
2023/03/31 04:08:57;;;;;;;4.55;2.67;;;;;;;11.62;69.57;97240.31;7389801;19;20475;-80
2023/03/31 04:11:24;;;;;;;2.63;1.98;;;;;;;11.60;69.38;97235.22;7389074;19;20364;-79
2023/03/31 04:13:51;;;;;;;2.55;1.58;;;;;;;11.52;69.94;97229.22;7389149;19;19914;-79
2023/03/31 04:16:18;;;;;;;3.38;2.13;;;;;;;11.50;69.74;97223.28;7390355;19;19919;-80
2023/03/31 04:18:47;;;;;;;3.42;2.35;;;;;;;11.38;70.14;97215.03;7388809;19;19939;-79
2023/03/31 04:21:21;;;;;;;4.20;2.30;;;;;;;11.28;70.43;97215.34;7392750;19;19926;-79
2023/03/31 04:23:57;;;;;;;3.05;1.90;;;;;;;11.16;70.56;97208.91;7386718;19;19990;-80
2023/03/31 04:26:29;;;;;;;4.35;2.10;;;;;;;11.09;70.98;97202.75;7386872;19;20352;-79
2023/03/31 04:29:00;;;;;;;2.53;1.67;;;;;;;11.02;71.14;97197.38;7393876;19;20459;-79
2023/03/31 04:31:29;;;;;;;3.40;2.10;;;;;;;10.98;71.64;97201.41;7383128;19;19926;-78
2023/03/31 04:34:01;;;;;;;5.15;2.40;;;;;;;11.01;72.36;97189.63;7383581;19;19918;-80
2023/03/31 04:36:30;;;;;;;4.38;2.10;;;;;;;11.10;71.63;97180.56;7388829;19;19937;-80
2023/03/31 04:38:57;;;;;;;3.22;2.63;;;;;;;11.20;71.71;97189.00;7394674;19;20813;-79
2023/03/31 04:41:26;;;;;;;4.00;2.88;;;;;;;11.28;71.44;97188.88;7390701;19;19914;-80
2023/03/31 04:43:53;;;;;;;7.53;2.75;;;;;;;11.25;71.34;97189.25;7386820;19;19918;-79
2023/03/31 04:46:21;;;;;;;4.63;2.50;;;;;;;11.25;71.14;97189.25;7385843;19;20351;-80
2023/03/31 04:48:48;;;;;;;4.78;2.67;;;;;;;11.33;70.95;97178.53;7390248;19;20375;-79
2023/03/31 04:51:15;;;;;;;5.28;2.88;;;;;;;11.35;71.05;97165.94;7390007;19;20397;-80
2023/03/31 04:53:42;;;;;;;5.88;2.35;;;;;;;11.27;70.92;97158.13;7386073;19;19929;-80
2023/03/31 04:56:08;;;;;;;5.40;3.45;;;;;;;11.35;71.05;97144.75;7395309;19;20004;-80
2023/03/31 04:58:36;;;;;;;6.85;3.47;;;;;;;11.27;71.29;97131.66;7388351;19;19922;-79
2023/03/31 05:01:05;;;;;;;5.93;3.13;;;;;;;11.29;71.12;97134.91;7393542;19;19929;-79
2023/03/31 05:03:32;;;;;;;3.85;2.95;;;;;;;11.19;71.57;97137.09;7385392;19;20305;-81
2023/03/31 05:05:59;;;;;;;7.03;3.10;;;;;;;11.31;71.00;97148.78;7389046;19;20335;-80
2023/03/31 05:08:26;;;;;;;7.88;2.58;;;;;;;11.35;70.84;97141.28;7387049;19;19926;-79
2023/03/31 05:10:53;;;;;;;5.20;2.65;;;;;;;11.54;70.30;97145.09;7391621;19;19922;-80
2023/03/31 05:13:20;;;;;;;4.63;3.00;;;;;;;11.45;70.33;97143.59;7390248;19;19910;-79
2023/03/31 05:15:49;;;;;;;4.72;2.88;;;;;;;11.44;70.65;97145.44;7387969;19;20371;-79
2023/03/31 05:18:16;;;;;;;7.28;3.17;;;;;;;11.48;69.95;97159.09;7385869;19;20269;-79
2023/03/31 05:20:43;;;;;;;5.43;3.70;;;;;;;11.56;70.40;97162.44;7388414;19;19946;-80
2023/03/31 05:23:11;;;;;;;4.90;3.28;;;;;;;11.58;71.87;97170.19;7389732;19;19923;-80
2023/03/31 05:25:37;;;;;;;5.35;3.28;;;;;;;11.43;73.91;97189.63;7386663;19;20851;-79
2023/03/31 05:28:04;;;;;;;3.95;3.03;;;;;;;11.03;76.06;97198.19;7393217;19;19923;-79
2023/03/31 05:30:31;;;;;;;6.10;3.90;;;;;;;10.95;77.56;97202.59;7391533;19;19918;-79
2023/03/31 05:32:58;;;;;;;7.00;3.17;;;;;;;10.91;78.53;97203.97;7394501;19;19931;-80
2023/03/31 05:35:25;;;;;;;6.35;3.42;;;;;;;10.53;80.11;97227.09;7393453;19;19990;-81
2023/03/31 05:37:52;;;;;;;8.98;3.80;;;;;;;10.57;80.70;97214.34;7387067;19;19923;-81
2023/03/31 05:40:19;;;;;;;7.20;3.63;;;;;;;10.67;80.82;97201.66;7382713;19;19926;-81
2023/03/31 05:42:45;;;;;;;7.70;3.78;;;;;;;10.63;81.25;97206.47;7382266;19;19927;-82
2023/03/31 05:45:12;;;;;;;6.07;4.13;;;;;;;10.65;81.37;97198.38;7388870;19;19929;-83
2023/03/31 05:47:39;;;;;;;7.18;4.20;;;;;;;10.57;82.44;97194.00;7392186;19;19931;-84
2023/03/31 05:50:07;;;;;;;12.60;5.78;;;;;;;10.55;82.66;97191.53;7397831;19;19934;-82
2023/03/31 05:52:35;;;;;;;13.43;5.50;;;;;;;10.51;82.76;97184.97;7395061;19;19922;-85
2023/03/31 05:55:03;;;;;;;10.35;5.47;;;;;;;10.50;83.34;97185.97;7392572;19;20337;-81
2023/03/31 05:57:30;;;;;;;9.52;4.45;;;;;;;10.47;83.83;97173.13;7387847;19;19923;-80
2023/03/31 05:59:57;;;;;;;6.07;4.30;;;;;;;10.52;83.64;97164.63;7384814;19;19939;-80
2023/03/31 06:02:24;;;;;;;14.88;5.03;;;;;;;10.52;84.54;97160.16;7385840;19;19923;-82
2023/03/31 06:04:51;;;;;;;6.72;4.30;;;;;;;10.53;85.25;97139.81;7385843;19;19930;-79
2023/03/31 06:07:18;;;;;;;8.10;5.13;;;;;;;10.58;84.57;97136.63;7388253;19;19941;-78
2023/03/31 06:09:45;;;;;;;10.23;5.68;;;;;;;10.63;85.08;97134.25;7382831;19;19910;-80
2023/03/31 06:12:12;;;;;;;7.32;5.25;;;;;;;10.69;85.23;97117.63;7388837;19;20328;-78
2023/03/31 06:14:39;;;;;;;10.15;5.80;;;;;;;10.75;85.25;97122.19;7385119;19;20420;-79
2023/03/31 06:17:06;;;;;;;6.28;5.38;;;;;;;10.79;85.00;97104.91;7389547;19;19915;-79
2023/03/31 06:19:33;;;;;;;5.43;4.55;;;;;;;10.67;83.96;97109.91;7385804;19;19922;-79
2023/03/31 06:22:00;;;;;;;9.23;5.10;;;;;;;10.67;83.94;97101.16;7392269;19;19914;-78
2023/03/31 06:24:27;;;;;;;8.10;4.97;;;;;;;10.68;84.17;97100.94;7384236;19;20025;-79
2023/03/31 06:26:54;;;;;;;8.52;5.65;;;;;;;10.69;83.86;97101.75;7389397;19;19918;-79
2023/03/31 06:29:21;;;;;;;10.80;6.07;;;;;;;10.67;84.12;97087.91;7394274;19;19994;-78
2023/03/31 06:31:47;;;;;;;8.75;4.72;;;;;;;10.74;84.32;97084.34;7385555;19;19971;-79
2023/03/31 06:34:15;;;;;;;10.55;5.53;;;;;;;10.81;84.43;97080.94;7389449;19;19943;-79
2023/03/31 06:36:45;;;;;;;;;;;;;;;10.81;84.13;97078.28;7389000;19;20365;-80
2023/03/31 06:39:12;;;;;;;10.77;7.03;;;;;;;10.76;83.97;97081.50;7393326;19;20586;-79
2023/03/31 06:41:38;;;;;;;12.05;5.30;;;;;;;10.71;83.69;97083.88;7390653;19;20317;-80
2023/03/31 06:44:05;;;;;;;10.15;5.50;;;;;;;10.66;83.84;97084.44;7392487;19;19918;-80
2023/03/31 06:46:32;;;;;;;8.50;5.25;;;;;;;10.53;84.02;97087.78;7384391;19;19914;-78
2023/03/31 06:48:59;;;;;;;10.77;5.32;;;;;;;10.59;83.93;97074.81;7391510;19;19919;-79
2023/03/31 06:51:26;;;;;;;8.57;5.47;;;;;;;10.60;83.73;97089.66;7392014;19;19925;-80
2023/03/31 06:53:54;;;;;;;11.00;6.35;;;;;;;10.53;84.16;97093.06;7388274;19;19938;-79
2023/03/31 06:56:21;;;;;;;10.20;5.45;;;;;;;10.43;84.15;97102.31;7392703;19;19922;-80
2023/03/31 06:58:47;;;;;;;11.68;6.43;;;;;;;10.38;85.17;97102.84;7408999;19;19911;-80
2023/03/31 07:01:14;;;;;;;12.77;6.50;;;;;;;10.31;85.21;97105.41;7411321;19;19921;-82
2023/03/31 07:03:41;;;;;;;9.93;5.95;;;;;;;10.40;84.87;97122.00;7382896;19;19934;-79
2023/03/31 07:06:08;;;;;;;11.40;5.65;;;;;;;10.49;84.98;97134.09;7391787;19;19923;-79
2023/03/31 07:08:41;;;;;;;10.20;5.07;;;;;;;10.44;84.97;97136.47;7381869;19;19922;-79
2023/03/31 07:11:08;;;;;;;8.50;5.38;;;;;;;10.45;85.13;97148.72;7394354;19;19955;-79
2023/03/31 07:13:35;;;;;;;10.35;6.30;;;;;;;10.38;85.63;97152.28;7387070;19;19914;-80
2023/03/31 07:16:03;;;;;;;15.93;7.43;;;;;;;10.37;86.01;97151.44;7391393;19;19925;-80
2023/03/31 07:18:31;;;;;;;8.98;5.90;;;;;;;10.42;85.69;97143.78;7383808;19;19915;-79
2023/03/31 07:21:00;;;;;;;11.23;6.32;;;;;;;10.29;86.29;97133.03;7387964;19;19918;-80
2023/03/31 07:23:27;;;;;;;16.08;7.20;;;;;;;10.42;86.15;97053.88;7380790;19;19970;-81
2023/03/31 07:25:54;;;;;;;13.25;6.50;;;;;;;10.41;85.88;97036.38;7386242;19;20451;-81
2023/03/31 07:28:21;;;;;;;13.50;7.03;;;;;;;10.46;86.01;97010.19;7390519;19;19914;-80
2023/03/31 07:30:48;;;;;;;7.75;6.65;;;;;;;10.56;85.91;97031.06;7384048;19;21488;-80
2023/03/31 07:33:15;;;;;;;10.40;5.18;;;;;;;10.61;85.82;97038.41;7389739;19;19942;-82
2023/03/31 07:35:41;;;;;;;12.00;6.70;;;;;;;10.57;85.64;97039.81;7385152;19;21086;-81
2023/03/31 07:38:09;;;;;;;7.63;5.10;;;;;;;10.50;85.83;97047.66;7390630;19;20096;-82
2023/03/31 07:40:36;;;;;;;8.07;4.47;;;;;;;10.57;85.99;97060.97;7387150;19;19914;-83
2023/03/31 07:43:04;;;;;;;7.70;4.18;;;;;;;10.64;85.85;97065.31;7387744;19;19922;-82
2023/03/31 07:45:31;;;;;;;7.47;4.40;;;;;;;10.86;85.61;97070.59;7390525;19;19922;-83
2023/03/31 07:47:58;;;;;;;8.32;3.78;;;;;;;10.96;85.45;97071.09;7391303;19;19931;-83
2023/03/31 07:50:25;;;;;;;6.43;4.25;;;;;;;10.94;84.53;97071.28;7392933;19;19918;-83
2023/03/31 07:52:54;;;;;;;7.78;3.95;;;;;;;10.94;84.90;97066.00;7388000;19;20015;-80
2023/03/31 07:55:22;;;;;;;7.07;3.65;;;;;;;11.24;84.22;97059.72;7385519;19;19914;-83
2023/03/31 07:57:50;;;;;;;5.45;3.13;;;;;;;11.51;83.66;97058.09;7386145;19;19942;-82
2023/03/31 08:00:17;;;;;;;4.60;3.15;;;;;;;11.35;81.71;97044.13;7389727;19;20657;-85
2023/03/31 08:02:44;;;;;;;3.83;2.22;;;;;;;11.35;81.52;97049.44;7385771;19;19928;-81
2023/03/31 08:05:13;;;;;;;2.80;1.92;;;;;;;11.28;81.43;97050.38;7387979;19;19929;-81
2023/03/31 08:07:42;;;;;;;3.92;2.03;;;;;;;11.10;81.15;97049.03;7388275;19;19919;-82
2023/03/31 08:10:15;;;;;;;2.75;2.42;;;;;;;11.13;81.14;97048.63;7385212;19;19929;-83
2023/03/31 08:12:42;;;;;;;3.17;1.95;;;;;;;11.25;81.04;97053.44;7384228;19;19918;-80
2023/03/31 08:15:09;;;;;;;2.30;1.67;;;;;;;11.42;80.63;97057.41;7385590;19;19923;-81
2023/03/31 08:17:37;;;;;;;3.30;3.00;;;;;;;11.51;79.86;97050.16;7382803;19;20406;-83
2023/03/31 08:20:06;;;;;;;2.45;1.85;;;;;;;11.64;78.69;97037.78;7383917;19;20342;-79
2023/03/31 08:22:33;;;;;;;1.58;1.20;;;;;;;11.81;78.75;97042.78;7384683;19;19956;-81
2023/03/31 08:25:00;;;;;;;2.17;1.85;;;;;;;12.10;77.67;97041.72;7389149;19;19922;-83
2023/03/31 08:27:27;;;;;;;2.60;1.10;;;;;;;12.35;75.78;97039.38;7393507;19;20608;-83
2023/03/31 08:29:54;;;;;;;1.60;0.75;;;;;;;12.55;75.28;97020.81;7389804;19;20352;-80
2023/03/31 08:32:23;;;;;;;2.80;1.52;;;;;;;12.75;74.87;97023.53;7395711;19;19955;-83
2023/03/31 08:34:50;;;;;;;2.75;1.02;;;;;;;12.83;73.79;97030.47;7392567;19;19932;-81
2023/03/31 08:37:17;;;;;;;2.58;0.98;;;;;;;12.70;73.65;97013.50;7395220;19;19923;-81
2023/03/31 08:39:44;;;;;;;2.47;1.23;;;;;;;12.74;74.36;97025.38;7391541;19;19918;-82
2023/03/31 08:42:30;;;;;;;1.63;0.88;;;;;;;12.77;74.31;97010.03;7396424;19;20009;-81
2023/03/31 08:45:03;;;;;;;1.83;1.17;;;;;;;12.87;75.14;97013.91;7391705;19;19933;-81
2023/03/31 08:47:31;;;;;;;2.00;0.90;;;;;;;13.04;74.13;97013.53;7385722;19;19919;-81
2023/03/31 08:50:04;;;;;;;2.05;1.40;;;;;;;13.16;73.40;97012.72;7390236;19;19918;-79
2023/03/31 08:52:34;;;;;;;1.60;1.38;;;;;;;13.44;73.14;97011.69;7393979;19;19923;-82
2023/03/31 08:55:09;;;;;;;2.00;1.40;;;;;;;13.85;72.63;97005.25;7393922;19;19939;-84
2023/03/31 08:57:56;;;;;;;2.25;1.40;;;;;;;13.70;70.92;97017.97;7392375;19;19922;-81
2023/03/31 09:00:23;;;;;;;2.00;1.25;;;;;;;13.75;72.30;97015.50;7390122;19;20323;-83
2023/03/31 09:03:03;;;;;;;2.47;1.17;;;;;;;13.82;71.75;97014.47;7383702;19;20056;-81
2023/03/31 09:05:38;;;;;;;2.40;1.92;;;;;;;13.69;70.44;96997.72;7388147;19;19982;-80
2023/03/31 09:08:38;;;;;;;2.03;1.30;;;;;;;14.08;71.79;97001.25;7394104;19;19926;-83
2023/03/31 09:11:22;;;;;;;1.55;1.45;;;;;;;14.54;69.54;96978.94;7387389;19;20279;-80
2023/03/31 09:13:56;;;;;;;3.25;1.17;;;;;;;14.63;67.80;96982.97;7382716;19;19986;-82
2023/03/31 09:16:26;;;;;;;4.47;1.65;;;;;;;14.47;69.00;96987.75;7383208;19;19926;-80
2023/03/31 09:18:58;;;;;;;3.10;0.75;;;;;;;14.33;67.52;96972.91;7382852;19;19957;-82
2023/03/31 09:21:32;;;;;;;2.92;2.00;;;;;;;14.75;68.25;96959.94;7386355;19;20649;-82
2023/03/31 09:24:04;;;;;;;2.17;1.70;;;;;;;14.41;65.14;96961.19;7386613;19;19941;-80
2023/03/31 09:26:36;;;;;;;3.10;1.13;;;;;;;14.49;65.82;96960.94;7389266;19;19914;-83
2023/03/31 09:29:09;;;;;;;3.13;1.63;;;;;;;14.36;63.00;96959.16;7390515;19;19915;-82
2023/03/31 09:31:37;;;;;;;2.00;1.23;;;;;;;14.49;63.12;96942.31;7387807;19;19934;-83
2023/03/31 09:34:11;;;;;;;2.20;0.88;;;;;;;14.43;62.96;96962.59;7384932;19;19943;-82
2023/03/31 09:36:38;;;;;;;1.15;1.02;;;;;;;14.35;62.40;96954.88;7387424;19;19925;-81
2023/03/31 09:39:05;;;;;;;3.05;0.63;;;;;;;14.47;62.73;96953.16;7391089;19;19914;-82
2023/03/31 09:41:32;;;;;;;1.65;0.95;;;;;;;14.60;62.75;96970.09;7392546;19;19923;-80
2023/03/31 09:44:00;;;;;;;2.05;1.15;;;;;;;14.66;63.22;96972.69;7385330;19;19918;-80
2023/03/31 09:46:33;;;;;;;2.00;1.25;;;;;;;14.89;61.34;96961.47;7390235;19;19968;-80
2023/03/31 09:49:09;;;;;;;4.20;1.10;;;;;;;14.80;60.47;96956.66;7391418;19;20333;-80
2023/03/31 09:51:37;;;;;;;3.03;1.13;;;;;;;14.63;59.28;96957.16;7388729;19;19910;-80
2023/03/31 09:54:28;;;;;;;4.75;1.17;;;;;;;13.94;58.63;96953.47;7387369;19;20425;-82
2023/03/31 09:56:55;;;;;;;2.50;1.15;;;;;;;14.25;60.00;96959.84;7387003;19;21287;-81
2023/03/31 09:59:33;;;;;;;3.25;1.25;;;;;;;14.75;58.46;96943.97;7393165;19;19935;-80
2023/03/31 10:02:20;;;;;;;5.63;1.20;;;;;;;14.59;57.85;96949.84;7390496;19;19955;-79
2023/03/31 10:04:47;;;;;;;4.07;1.52;;;;;;;14.75;59.35;96929.84;7386087;19;19928;-81
2023/03/31 10:07:20;;;;;;;3.35;1.17;;;;;;;14.78;58.02;96938.22;7388574;19;20273;-81
2023/03/31 10:09:46;;;;;;;3.95;1.45;;;;;;;14.56;57.98;96948.44;7383150;19;21156;-79
2023/03/31 10:12:23;;;;;;;6.13;1.35;;;;;;;14.39;57.54;96924.13;7387459;19;19925;-82
2023/03/31 10:14:51;;;;;;;4.15;1.48;;;;;;;14.80;58.55;96924.69;7393493;19;19939;-82
2023/03/31 10:17:23;;;;;;;2.95;0.93;;;;;;;14.81;56.71;96921.81;7388167;19;20016;-82
2023/03/31 10:19:52;;;;;;;3.55;1.23;;;;;;;15.02;56.20;96917.94;7387815;19;19943;-81
2023/03/31 10:22:22;;;;;;;5.13;1.02;;;;;;;15.24;54.80;96912.19;7391707;19;19922;-79
2023/03/31 10:24:50;;;;;;;2.65;0.77;;;;;;;15.62;55.60;96922.63;7396400;19;19918;-79
2023/03/31 10:27:25;;;;;;;2.60;1.48;;;;;;;15.87;54.51;96900.41;7394604;19;19918;-79
2023/03/31 10:29:53;;;;;;;4.22;0.80;;;;;;;16.17;54.25;96911.88;7387549;19;20353;-80
2023/03/31 10:32:24;;;;;;;3.28;1.02;;;;;;;16.43;54.48;96907.22;7391628;19;19936;-78
2023/03/31 10:34:51;;;;;;;4.25;1.50;;;;;;;16.50;53.09;96910.56;7385419;19;19919;-79
2023/03/31 10:37:23;;;;;;;2.67;1.85;;;;;;;16.67;50.71;96900.84;7386784;19;19938;-79
2023/03/31 10:40:06;;;;;;;2.38;1.10;;;;;;;16.72;52.60;96880.66;7382889;19;19919;-79
2023/03/31 10:42:33;;;;;;;4.18;1.58;;;;;;;16.67;51.20;96884.84;7386968;19;20573;-77
2023/03/31 10:45:36;;;;;;;4.32;1.08;;;;;;;16.89;51.22;96862.94;7381960;19;19929;-79
2023/03/31 10:48:08;;;;;;;2.83;0.88;;;;;;;17.12;51.21;96856.75;7384862;19;19929;-80
2023/03/31 10:50:35;;;;;;;2.63;1.05;;;;;;;16.72;50.05;96867.28;7389515;19;19926;-81
2023/03/31 10:53:12;;;;;;;2.45;0.90;;;;;;;16.20;49.87;96865.25;7381131;19;22434;-78
2023/03/31 10:55:48;;;;;;;3.60;0.70;;;;;;;16.16;51.08;96856.88;7381516;19;19922;-81
2023/03/31 10:58:35;;;;;;;5.53;1.20;;;;;;;15.44;51.22;96877.31;7386892;19;20523;-80
2023/03/31 11:01:11;;;;;;;4.18;1.20;;;;;;;15.13;49.91;96865.78;7384569;19;19914;-78
2023/03/31 11:03:49;;;;;;;1.30;0.70;;;;;;;15.31;51.58;96857.78;7386255;19;19917;-81
2023/03/31 11:06:25;;;;;;;3.28;1.10;;;;;;;15.50;50.75;96873.75;7391154;19;19943;-80
2023/03/31 11:08:54;;;;;;;2.28;1.30;;;;;;;15.51;49.52;96873.53;7384836;19;20435;-77
2023/03/31 11:11:35;;;;;;;6.63;1.23;;;;;;;15.50;50.17;96868.44;7389324;19;20260;-80
2023/03/31 11:14:08;;;;;;;7.70;1.35;;;;;;;15.16;50.39;96862.66;7376186;19;19924;-78
2023/03/31 11:17:00;;;;;;;4.40;1.13;;;;;;;14.96;50.60;96844.25;7393193;19;19914;-79
2023/03/31 11:19:45;;;;;;;1.95;0.95;;;;;;;14.93;50.21;96850.81;7392035;19;19918;-82
2023/03/31 11:22:30;;;;;;;3.03;0.93;;;;;;;14.84;50.50;96841.47;7390051;19;19918;-80
2023/03/31 11:25:23;;;;;;;2.17;1.20;;;;;;;14.02;57.45;96888.59;7382772;19;19919;-80
2023/03/31 11:27:59;;;;;;;2.50;1.35;;;;;;;12.34;68.75;96967.94;7382111;19;19946;-81
2023/03/31 11:30:36;;;;;;;4.18;1.65;;;;;;;10.46;79.90;96989.06;7380058;19;19914;-80
2023/03/31 11:33:21;;;;;;;2.88;0.93;;;;;;;9.47;83.37;96996.59;7383883;19;19939;-80
2023/03/31 11:36:18;;;;;;;4.10;0.70;;;;;;;8.86;85.71;97020.47;7383501;19;19930;-79
2023/03/31 11:38:49;;;;;;;2.53;0.82;;;;;;;8.86;87.44;97009.09;7388448;19;19939;-80
2023/03/31 11:41:21;;;;;;;0.68;0.63;;;;;;;9.07;86.76;97005.78;7391348;19;19922;-78
2023/03/31 11:44:02;;;;;;;0.85;0.50;;;;;;;9.45;85.94;97010.00;7388520;19;20259;-81
2023/03/31 11:46:40;;;;;;;1.02;0.85;;;;;;;9.54;85.20;97009.91;7391868;19;19922;-80
2023/03/31 11:49:17;;;;;;;1.60;1.50;;;;;;;9.54;83.39;97009.91;7387656;19;20018;-80
2023/03/31 11:52:05;;;;;;;1.50;0.85;;;;;;;9.80;83.18;97006.78;7389343;19;19920;-82
2023/03/31 11:54:41;;;;;;;1.85;0.75;;;;;;;9.76;82.29;97006.31;7389581;19;19970;-79